Time;durP1;ratioP1;P1;durP2;ratioP2;P2;SDS_P1;SDS_P2;PMS_P1;PMS_P2;Temp;Humidity;BMP_temperature;BMP_pressure;BME280_temperature;BME280_humidity;BME280_pressure;Samples;Min_cycle;Max_cycle;Signal;HPM_P1;HPM_P2
2022/01/23 00:02:42;;;;;;;2.23;1.40;;;;;;;;;;5043445;28;20029;-53
2022/01/23 00:05:08;;;;;;;2.30;1.50;;;;;;;;;;5042876;28;20041;-54
2022/01/23 00:07:34;;;;;;;3.22;1.70;;;;;;;;;;5043191;28;20059;-52
2022/01/23 00:10:00;;;;;;;2.28;1.60;;;;;;;;;;5043177;28;20032;-54
2022/01/23 00:12:27;;;;;;;2.70;1.50;;;;;;;;;;5033175;28;20493;-52
2022/01/23 00:17:36;;;;;;;2.38;1.48;;;;;;;;;;5026448;28;20062;-54
2022/01/23 00:20:06;;;;;;;2.25;1.60;;;;;;;;;;5043111;28;20025;-52
2022/01/23 00:22:42;;;;;;;2.53;1.77;;;;;;;;;;5025632;28;20117;-52
2022/01/23 00:30:36;;;;;;;2.90;1.60;;;;;;;;;;5043853;28;20059;-53
2022/01/23 00:33:02;;;;;;;2.38;1.48;;;;;;;;;;5014846;28;20061;-53
2022/01/23 00:35:27;;;;;;;2.22;1.42;;;;;;;;;;5037984;28;20107;-52
2022/01/23 00:37:53;;;;;;;2.35;1.40;;;;;;;;;;5028467;28;20543;-53
2022/01/23 00:40:18;;;;;;;2.67;1.52;;;;;;;;;;5042782;28;20039;-54
2022/01/23 00:42:43;;;;;;;2.90;1.58;;;;;;;;;;5042929;28;20381;-54
2022/01/23 00:47:46;;;;;;;2.40;1.38;;;;;;;;;;5042760;28;20508;-53
2022/01/23 00:50:12;;;;;;;2.40;1.30;;;;;;;;;;5043108;28;20087;-53
2022/01/23 00:52:37;;;;;;;2.30;1.37;;;;;;;;;;5032204;28;20032;-53
2022/01/23 00:55:04;;;;;;;2.00;1.30;;;;;;;;;;5029653;28;20276;-55
2022/01/23 00:57:30;;;;;;;2.25;1.58;;;;;;;;;;5033991;28;20421;-54
2022/01/23 00:59:55;;;;;;;2.70;1.50;;;;;;;;;;5046987;28;20059;-51
2022/01/23 01:02:20;;;;;;;2.03;1.20;;;;;;;;;;5043117;28;20021;-52
2022/01/23 01:04:45;;;;;;;2.20;1.43;;;;;;;;;;5042936;28;20055;-51
2022/01/23 01:07:11;;;;;;;2.27;1.30;;;;;;;;;;5042861;28;20024;-53
2022/01/23 01:09:36;;;;;;;2.10;1.40;;;;;;;;;;5042015;28;20285;-53
2022/01/23 01:12:05;;;;;;;1.98;1.30;;;;;;;;;;5030424;28;20343;-51
2022/01/23 01:15:39;;;;;;;1.98;1.35;;;;;;;;;;5022706;28;20053;-51
2022/01/23 01:17:38;;;;;;;2.05;1.20;;;;;;;;;;4997437;28;20092;-51
2022/01/23 01:36:05;;;;;;;2.40;1.40;;;;;;;;;;5019131;28;20643;-54
2022/01/23 01:38:31;;;;;;;2.95;1.63;;;;;;;;;;5031809;28;20490;-52
2022/01/23 01:40:56;;;;;;;2.15;1.30;;;;;;;;;;5024012;28;20079;-53
2022/01/23 01:43:22;;;;;;;2.30;1.10;;;;;;;;;;5041292;28;20025;-52
2022/01/23 01:45:47;;;;;;;2.23;1.20;;;;;;;;;;5041486;28;20260;-52
2022/01/23 01:48:14;;;;;;;2.20;1.20;;;;;;;;;;5041559;28;20715;-53
2022/01/23 01:50:44;;;;;;;1.85;1.20;;;;;;;;;;5041666;28;20519;-54
2022/01/23 01:53:11;;;;;;;2.22;0.93;;;;;;;;;;5005279;28;20022;-53
2022/01/23 01:55:44;;;;;;;2.15;1.17;;;;;;;;;;5036859;28;20025;-53
2022/01/23 01:58:32;;;;;;;1.88;1.30;;;;;;;;;;5028034;28;20024;-53
2022/01/23 02:00:58;;;;;;;2.13;1.17;;;;;;;;;;5041223;28;20090;-52
2022/01/23 02:08:44;;;;;;;2.10;1.30;;;;;;;;;;5041716;28;20067;-51
2022/01/23 02:11:25;;;;;;;1.70;1.15;;;;;;;;;;5041444;28;20048;-51
2022/01/23 02:13:56;;;;;;;2.22;1.33;;;;;;;;;;5001761;28;20096;-52
2022/01/23 02:51:45;;;;;;;2.03;1.20;;;;;;;;;;5042807;28;20032;-52
2022/01/23 02:56:58;;;;;;;3.25;1.20;;;;;;;;;;5024415;28;20472;-54
2022/01/23 02:59:29;;;;;;;1.92;1.17;;;;;;;;;;5040738;28;20375;-54
2022/01/23 03:04:33;;;;;;;2.25;1.10;;;;;;;;;;5044099;28;20055;-53
2022/01/23 03:09:58;;;;;;;2.38;1.38;;;;;;;;;;5006801;28;20056;-52
2022/01/23 03:15:15;;;;;;;1.58;1.02;;;;;;;;;;5024467;28;20637;-51
2022/01/23 03:31:20;;;;;;;1.85;1.02;;;;;;;;;;5004868;28;20211;-53
2022/01/23 03:33:45;;;;;;;2.25;1.35;;;;;;;;;;5023772;28;20056;-54
2022/01/23 03:36:11;;;;;;;1.77;1.03;;;;;;;;;;5025937;28;20037;-53
2022/01/23 03:38:36;;;;;;;2.10;1.30;;;;;;;;;;5035321;28;20290;-54
2022/01/23 03:41:01;;;;;;;1.88;1.15;;;;;;;;;;5043964;28;20283;-54
2022/01/23 03:43:30;;;;;;;2.08;1.20;;;;;;;;;;5044645;28;20035;-54
2022/01/23 03:51:09;;;;;;;2.20;1.30;;;;;;;;;;5044072;28;20632;-54
2022/01/23 03:53:34;;;;;;;2.00;0.93;;;;;;;;;;5010625;28;20105;-53
2022/01/23 03:55:59;;;;;;;2.25;1.30;;;;;;;;;;5038566;28;20022;-52
2022/01/23 03:58:25;;;;;;;1.83;1.00;;;;;;;;;;5032460;28;20044;-51
2022/01/23 04:00:50;;;;;;;2.17;1.20;;;;;;;;;;5044687;28;20271;-52
2022/01/23 04:03:18;;;;;;;1.60;1.10;;;;;;;;;;5044568;28;20175;-52
2022/01/23 04:05:43;;;;;;;1.70;1.10;;;;;;;;;;5044884;28;20292;-54
2022/01/23 04:08:08;;;;;;;2.27;1.20;;;;;;;;;;5045639;28;20040;-53
2022/01/23 04:10:34;;;;;;;2.05;1.23;;;;;;;;;;5044840;28;20278;-53
2022/01/23 04:13:13;;;;;;;2.13;1.20;;;;;;;;;;5014289;28;20026;-52
2022/01/23 05:04:31;;;;;;;2.10;1.15;;;;;;;;;;5008872;28;20108;-55
2022/01/23 05:07:05;;;;;;;1.65;1.00;;;;;;;;;;5026343;28;20072;-53
2022/01/23 05:09:31;;;;;;;1.35;0.90;;;;;;;;;;5025296;28;20034;-52
2022/01/23 05:12:00;;;;;;;1.80;1.20;;;;;;;;;;5024697;28;20040;-52
2022/01/23 05:14:29;;;;;;;1.73;1.17;;;;;;;;;;5026982;28;20036;-52
2022/01/23 05:16:55;;;;;;;1.55;0.90;;;;;;;;;;5024186;28;20467;-52
2022/01/23 05:19:20;;;;;;;1.95;1.17;;;;;;;;;;5022744;28;20146;-52
2022/01/23 05:24:16;;;;;;;1.70;1.15;;;;;;;;;;5022589;28;20054;-52
2022/01/23 05:26:44;;;;;;;1.48;1.02;;;;;;;;;;5022263;28;20029;-52
2022/01/23 05:29:10;;;;;;;1.55;0.90;;;;;;;;;;5013024;28;20729;-52
2022/01/23 05:31:35;;;;;;;1.67;1.17;;;;;;;;;;5009706;28;20040;-53
2022/01/23 05:34:00;;;;;;;1.38;0.93;;;;;;;;;;5018236;28;20026;-52
2022/01/23 05:36:26;;;;;;;1.63;0.97;;;;;;;;;;5022049;28;20022;-52
2022/01/23 05:38:51;;;;;;;2.28;1.35;;;;;;;;;;5010216;28;20029;-52
2022/01/23 05:41:17;;;;;;;1.90;1.00;;;;;;;;;;5004362;28;20027;-51
2022/01/23 05:43:42;;;;;;;1.13;0.90;;;;;;;;;;5008685;28;20264;-52
2022/01/23 05:46:07;;;;;;;1.77;1.03;;;;;;;;;;5014070;28;20028;-52
2022/01/23 05:48:32;;;;;;;1.73;1.10;;;;;;;;;;5013766;28;20299;-53
2022/01/23 05:50:57;;;;;;;2.07;0.93;;;;;;;;;;5013462;28;20422;-53
2022/01/23 05:53:23;;;;;;;1.60;0.93;;;;;;;;;;5007738;28;20288;-54
2022/01/23 05:55:48;;;;;;;2.17;1.10;;;;;;;;;;5005334;28;20014;-53
2022/01/23 05:58:13;;;;;;;1.90;1.00;;;;;;;;;;5014016;28;20037;-52
2022/01/23 06:00:38;;;;;;;2.00;1.20;;;;;;;;;;5010959;28;20968;-54
2022/01/23 06:03:04;;;;;;;1.40;0.90;;;;;;;;;;5015829;28;20026;-52
2022/01/23 06:05:29;;;;;;;1.50;1.00;;;;;;;;;;5019898;28;20107;-53
2022/01/23 06:07:55;;;;;;;1.57;0.90;;;;;;;;;;5025325;28;20271;-53
2022/01/23 06:10:23;;;;;;;1.75;1.15;;;;;;;;;;5012243;28;20500;-53
2022/01/23 06:12:49;;;;;;;1.58;1.02;;;;;;;;;;5005188;28;20041;-53
2022/01/23 06:15:15;;;;;;;2.35;1.15;;;;;;;;;;5027969;28;20026;-53
2022/01/23 06:17:40;;;;;;;1.60;0.93;;;;;;;;;;5025786;28;20028;-54
2022/01/23 06:20:08;;;;;;;1.80;1.00;;;;;;;;;;5024973;28;20029;-53
2022/01/23 06:22:33;;;;;;;1.20;0.90;;;;;;;;;;5025341;28;20492;-52
2022/01/23 06:24:58;;;;;;;1.75;1.17;;;;;;;;;;5029002;28;20057;-53
2022/01/23 06:27:24;;;;;;;1.70;1.00;;;;;;;;;;5028043;28;20021;-52
2022/01/23 06:29:49;;;;;;;1.37;0.87;;;;;;;;;;5032126;28;20342;-53
2022/01/23 06:32:14;;;;;;;1.53;0.90;;;;;;;;;;5041908;28;20112;-52
2022/01/23 06:34:40;;;;;;;1.30;1.00;;;;;;;;;;5010648;28;20108;-53
2022/01/23 06:37:05;;;;;;;1.98;1.20;;;;;;;;;;5009756;28;20090;-54
2022/01/23 06:39:31;;;;;;;1.50;1.00;;;;;;;;;;5044211;28;20713;-52
2022/01/23 06:41:56;;;;;;;2.00;1.10;;;;;;;;;;5025136;28;20558;-53
2022/01/23 06:44:22;;;;;;;2.40;1.20;;;;;;;;;;5009703;28;20033;-53
2022/01/23 06:46:48;;;;;;;2.17;1.05;;;;;;;;;;5033721;28;20528;-53
2022/01/23 06:49:13;;;;;;;1.80;0.93;;;;;;;;;;5046888;28;20040;-53
2022/01/23 06:51:38;;;;;;;2.40;1.30;;;;;;;;;;5044882;28;21016;-53
2022/01/23 06:54:03;;;;;;;1.92;1.35;;;;;;;;;;5015609;28;20334;-53
2022/01/23 06:56:29;;;;;;;2.30;1.20;;;;;;;;;;5016919;28;20026;-53
2022/01/23 06:58:54;;;;;;;2.80;1.02;;;;;;;;;;5008205;28;20036;-52
2022/01/23 07:01:19;;;;;;;1.40;1.00;;;;;;;;;;5012448;28;20025;-53
2022/01/23 07:03:45;;;;;;;1.40;1.20;;;;;;;;;;5012733;28;20264;-53
2022/01/23 07:06:10;;;;;;;1.80;0.90;;;;;;;;;;5011036;28;20044;-52
2022/01/23 07:08:35;;;;;;;2.03;1.20;;;;;;;;;;5009239;28;20344;-53
2022/01/23 07:11:00;;;;;;;1.80;1.10;;;;;;;;;;5009049;28;20045;-54
2022/01/23 07:13:26;;;;;;;1.50;1.10;;;;;;;;;;5006046;28;20545;-53
2022/01/23 07:15:51;;;;;;;3.90;1.20;;;;;;;;;;5011416;28;20112;-53
2022/01/23 07:18:16;;;;;;;1.63;1.13;;;;;;;;;;5009881;28;20782;-53
2022/01/23 07:20:42;;;;;;;2.10;1.27;;;;;;;;;;5009939;28;20726;-53
2022/01/23 07:23:07;;;;;;;1.50;1.00;;;;;;;;;;5017836;28;20326;-55
2022/01/23 07:25:32;;;;;;;2.58;1.38;;;;;;;;;;5024552;28;20029;-55
2022/01/23 07:27:59;;;;;;;2.30;1.30;;;;;;;;;;5025425;28;20009;-54
2022/01/23 07:30:38;;;;;;;1.70;1.10;;;;;;;;;;5024118;28;20588;-54
2022/01/23 07:33:04;;;;;;;2.75;1.30;;;;;;;;;;5022533;28;20116;-52
2022/01/23 07:35:29;;;;;;;1.80;1.33;;;;;;;;;;5022260;28;20128;-55
2022/01/23 07:37:54;;;;;;;1.83;1.15;;;;;;;;;;5023952;28;20019;-53
2022/01/23 07:40:20;;;;;;;1.97;1.30;;;;;;;;;;5023856;28;20101;-54
2022/01/23 07:42:45;;;;;;;1.97;1.30;;;;;;;;;;5023680;28;20317;-54
2022/01/23 07:45:10;;;;;;;2.10;1.70;;;;;;;;;;5023937;28;20255;-57
2022/01/23 07:47:36;;;;;;;2.70;1.67;;;;;;;;;;5023862;28;20491;-53
2022/01/23 07:50:03;;;;;;;2.33;1.77;;;;;;;;;;5023941;28;20026;-55
2022/01/23 07:52:30;;;;;;;3.67;2.17;;;;;;;;;;5022602;28;20072;-55
2022/01/23 07:54:55;;;;;;;2.40;2.00;;;;;;;;;;5014131;28;20500;-55
2022/01/23 07:57:20;;;;;;;2.15;1.83;;;;;;;;;;5012300;28;20064;-52
2022/01/23 07:59:46;;;;;;;1.87;1.53;;;;;;;;;;5018916;28;20028;-54
2022/01/23 08:02:11;;;;;;;2.70;1.70;;;;;;;;;;5023278;28;20014;-54
2022/01/23 08:04:36;;;;;;;2.60;1.90;;;;;;;;;;5033219;28;20094;-51
2022/01/23 08:10:00;;;;;;;2.47;1.70;;;;;;;;;;5035089;28;20056;-53
2022/01/23 08:12:26;;;;;;;2.43;1.63;;;;;;;;;;5038156;28;20029;-53
2022/01/23 08:14:51;;;;;;;2.72;1.60;;;;;;;;;;5035722;28;20727;-54
2022/01/23 08:17:16;;;;;;;2.28;1.50;;;;;;;;;;5032810;28;20021;-55
2022/01/23 08:19:42;;;;;;;2.70;1.50;;;;;;;;;;5037848;28;20052;-54
2022/01/23 08:22:07;;;;;;;2.50;1.40;;;;;;;;;;5011796;28;20025;-53
2022/01/23 08:24:32;;;;;;;2.67;1.40;;;;;;;;;;5030535;28;20325;-53
2022/01/23 08:26:57;;;;;;;2.13;1.50;;;;;;;;;;5042172;28;20800;-53
2022/01/23 08:29:23;;;;;;;2.53;1.60;;;;;;;;;;5042562;28;20442;-53
2022/01/23 08:31:48;;;;;;;3.60;1.97;;;;;;;;;;5040643;28;20490;-52
2022/01/23 08:34:13;;;;;;;2.27;1.50;;;;;;;;;;5010606;28;20498;-53
2022/01/23 08:36:39;;;;;;;2.85;1.50;;;;;;;;;;5004652;28;20584;-54
2022/01/23 08:39:04;;;;;;;4.53;1.50;;;;;;;;;;5009285;28;20036;-53
2022/01/23 08:44:13;;;;;;;3.63;1.90;;;;;;;;;;5015067;28;20175;-54
2022/01/23 08:46:38;;;;;;;6.65;1.52;;;;;;;;;;5007448;28;20653;-54
2022/01/23 08:49:03;;;;;;;3.57;1.50;;;;;;;;;;5018116;28;20026;-53
2022/01/23 08:51:29;;;;;;;2.87;1.50;;;;;;;;;;5018086;28;20040;-53
2022/01/23 08:53:54;;;;;;;2.83;1.50;;;;;;;;;;5018148;28;20351;-52
2022/01/23 08:56:19;;;;;;;3.43;1.70;;;;;;;;;;5002159;28;20064;-53
2022/01/23 08:58:44;;;;;;;2.93;1.50;;;;;;;;;;5007068;28;21066;-54
2022/01/23 09:01:09;;;;;;;3.33;1.70;;;;;;;;;;5006743;28;20420;-53
2022/01/23 09:03:35;;;;;;;3.63;1.60;;;;;;;;;;5005182;28;20523;-52
2022/01/23 09:06:00;;;;;;;2.92;1.65;;;;;;;;;;5007103;28;20045;-52
2022/01/23 09:08:25;;;;;;;3.57;1.80;;;;;;;;;;5006058;28;20075;-55
2022/01/23 09:10:56;;;;;;;3.10;1.47;;;;;;;;;;5004839;28;20109;-54
2022/01/23 09:13:52;;;;;;;3.25;1.70;;;;;;;;;;5016952;28;20268;-54
2022/01/23 09:16:17;;;;;;;3.40;1.67;;;;;;;;;;4990193;28;20513;-54
2022/01/23 09:18:43;;;;;;;4.97;2.08;;;;;;;;;;5031164;28;20032;-53
2022/01/23 09:21:08;;;;;;;3.83;1.77;;;;;;;;;;5005993;28;20045;-52
2022/01/23 09:23:33;;;;;;;2.70;1.57;;;;;;;;;;5006443;28;20037;-54
2022/01/23 09:26:02;;;;;;;3.30;1.60;;;;;;;;;;5003616;28;20280;-57
2022/01/23 09:28:32;;;;;;;2.92;1.80;;;;;;;;;;5002428;28;20231;-53
2022/01/23 09:30:58;;;;;;;3.03;1.60;;;;;;;;;;5012856;28;20131;-53
2022/01/23 09:33:23;;;;;;;3.75;2.30;;;;;;;;;;5019929;28;20060;-54
2022/01/23 09:35:48;;;;;;;3.90;2.20;;;;;;;;;;5038521;28;20759;-53
2022/01/23 09:38:14;;;;;;;3.10;1.93;;;;;;;;;;5006280;28;20538;-54
2022/01/23 09:40:42;;;;;;;3.20;1.77;;;;;;;;;;5034556;28;20443;-55
2022/01/23 09:43:08;;;;;;;3.10;1.92;;;;;;;;;;5030320;28;20829;-55
2022/01/23 09:45:34;;;;;;;3.10;1.63;;;;;;;;;;5042319;28;20037;-53
2022/01/23 09:48:02;;;;;;;3.33;1.70;;;;;;;;;;5044500;28;20020;-53
2022/01/23 09:50:27;;;;;;;2.83;1.83;;;;;;;;;;5033973;28;20043;-57
2022/01/23 09:52:53;;;;;;;4.27;1.63;;;;;;;;;;5010169;28;20022;-56
2022/01/23 09:55:19;;;;;;;4.72;2.03;;;;;;;;;;5024894;28;20037;-52
2022/01/23 09:57:47;;;;;;;3.45;1.73;;;;;;;;;;5026710;28;20029;-55
2022/01/23 10:00:17;;;;;;;4.50;2.00;;;;;;;;;;5045845;28;20118;-54
2022/01/23 10:02:42;;;;;;;3.53;1.75;;;;;;;;;;5034717;28;20020;-53
2022/01/23 10:05:07;;;;;;;3.97;2.17;;;;;;;;;;4995729;28;20034;-55
2022/01/23 10:07:37;;;;;;;4.35;2.08;;;;;;;;;;5004964;28;20095;-55
2022/01/23 10:10:15;;;;;;;5.70;1.97;;;;;;;;;;5004581;28;20025;-55
2022/01/23 10:12:41;;;;;;;5.88;2.20;;;;;;;;;;5004481;28;20049;-54
2022/01/23 10:15:06;;;;;;;4.30;1.83;;;;;;;;;;5006713;28;20072;-55
2022/01/23 10:17:32;;;;;;;3.67;2.17;;;;;;;;;;5004728;28;20072;-55
2022/01/23 10:19:57;;;;;;;5.00;2.07;;;;;;;;;;5004656;28;20399;-54
2022/01/23 10:22:23;;;;;;;2.80;1.70;;;;;;;;;;5005115;28;20467;-54
2022/01/23 10:24:49;;;;;;;3.00;1.80;;;;;;;;;;4987342;28;20184;-53
2022/01/23 10:27:15;;;;;;;2.83;1.63;;;;;;;;;;5004885;28;20520;-54
2022/01/23 10:29:45;;;;;;;3.05;2.10;;;;;;;;;;5004269;28;20488;-55
2022/01/23 10:32:12;;;;;;;4.20;2.00;;;;;;;;;;5006258;28;20038;-54
2022/01/23 10:34:40;;;;;;;3.30;1.95;;;;;;;;;;5004607;28;20029;-53
2022/01/23 10:37:05;;;;;;;4.30;2.20;;;;;;;;;;5004658;28;20042;-52
2022/01/23 10:39:43;;;;;;;4.10;2.73;;;;;;;;;;5004995;28;20683;-53
2022/01/23 10:47:52;;;;;;;3.97;2.03;;;;;;;;;;5004986;28;20044;-54
2022/01/23 10:50:20;;;;;;;3.72;3.00;;;;;;;;;;4983950;28;20037;-54
2022/01/23 10:52:48;;;;;;;4.03;2.10;;;;;;;;;;4993882;28;20044;-54
2022/01/23 10:55:13;;;;;;;4.43;2.40;;;;;;;;;;5005184;28;20037;-53
2022/01/23 10:57:44;;;;;;;5.70;2.87;;;;;;;;;;5005104;28;20720;-56
2022/01/23 11:00:11;;;;;;;4.65;2.60;;;;;;;;;;4988892;28;20428;-56
2022/01/23 11:02:42;;;;;;;6.43;2.70;;;;;;;;;;5004872;28;20025;-53
2022/01/23 11:05:08;;;;;;;4.88;2.40;;;;;;;;;;5027473;28;20076;-52
2022/01/23 11:07:33;;;;;;;4.22;2.50;;;;;;;;;;5044337;28;20021;-53
2022/01/23 11:10:06;;;;;;;4.60;2.60;;;;;;;;;;5044377;28;20031;-53
2022/01/23 11:17:52;;;;;;;5.32;2.50;;;;;;;;;;5022952;28;20102;-53
2022/01/23 11:20:32;;;;;;;4.05;2.45;;;;;;;;;;5044054;28;20459;-53
2022/01/23 11:23:09;;;;;;;4.15;2.28;;;;;;;;;;5044237;28;20064;-53
2022/01/23 11:25:35;;;;;;;4.60;2.55;;;;;;;;;;5044310;28;20499;-53
2022/01/23 11:28:03;;;;;;;4.73;2.80;;;;;;;;;;5043665;28;20033;-53
2022/01/23 11:30:36;;;;;;;3.75;2.35;;;;;;;;;;5044439;28;20278;-53
2022/01/23 11:33:01;;;;;;;3.85;2.40;;;;;;;;;;5032962;28;20819;-53
2022/01/23 11:35:27;;;;;;;4.97;2.47;;;;;;;;;;4998753;28;20053;-53
2022/01/23 11:37:53;;;;;;;4.07;2.00;;;;;;;;;;5005288;28;20296;-53
2022/01/23 11:53:53;;;;;;;4.80;2.25;;;;;;;;;;5018767;28;20080;-52
2022/01/23 11:56:38;;;;;;;3.45;2.55;;;;;;;;;;5022799;28;20025;-53
2022/01/23 11:59:10;;;;;;;5.57;2.50;;;;;;;;;;5023639;28;20033;-52
2022/01/23 12:01:35;;;;;;;5.80;2.65;;;;;;;;;;5036627;28;20044;-53
2022/01/23 12:04:14;;;;;;;3.55;2.40;;;;;;;;;;5025110;28;20025;-52
2022/01/23 12:06:39;;;;;;;5.63;2.58;;;;;;;;;;5022819;28;20094;-53
2022/01/23 12:09:11;;;;;;;3.88;2.40;;;;;;;;;;5025162;28;20025;-53
2022/01/23 12:11:58;;;;;;;3.35;2.33;;;;;;;;;;5019685;28;20018;-54
2022/01/23 12:16:51;;;;;;;3.57;2.50;;;;;;;;;;5022502;28;20116;-53
2022/01/23 12:19:18;;;;;;;3.95;2.13;;;;;;;;;;5023579;28;20368;-52
2022/01/23 12:21:43;;;;;;;4.28;2.42;;;;;;;;;;5023039;28;20013;-52
2022/01/23 12:24:09;;;;;;;4.82;2.42;;;;;;;;;;5023623;28;20036;-55
2022/01/23 12:26:34;;;;;;;5.55;2.22;;;;;;;;;;5023149;28;20087;-54
2022/01/23 12:29:12;;;;;;;4.13;2.37;;;;;;;;;;5022719;28;20112;-54
2022/01/23 12:31:37;;;;;;;3.45;2.35;;;;;;;;;;5023045;28;20268;-53
2022/01/23 12:34:02;;;;;;;4.53;2.58;;;;;;;;;;5022057;28;20036;-53
2022/01/23 12:36:28;;;;;;;3.90;2.30;;;;;;;;;;5022240;28;20060;-53
2022/01/23 12:39:15;;;;;;;4.68;2.00;;;;;;;;;;5024427;28;20159;-52
2022/01/23 12:41:46;;;;;;;3.80;2.60;;;;;;;;;;5004265;28;20025;-53
2022/01/23 12:44:24;;;;;;;4.13;2.42;;;;;;;;;;5025313;28;20059;-53
2022/01/23 12:46:52;;;;;;;3.20;2.30;;;;;;;;;;5024589;28;20018;-52
2022/01/23 12:49:18;;;;;;;4.47;2.65;;;;;;;;;;5024363;28;20112;-53
2022/01/23 12:51:43;;;;;;;4.43;2.17;;;;;;;;;;5024256;28;20395;-53
2022/01/23 12:54:13;;;;;;;3.25;2.00;;;;;;;;;;5021934;28;20497;-53
2022/01/23 12:56:42;;;;;;;3.55;2.30;;;;;;;;;;5023239;28;20022;-53
2022/01/23 12:59:11;;;;;;;;;;;;;;;;;;5024913;28;20037;-52
2022/01/23 13:01:37;;;;;;;5.05;2.40;;;;;;;;;;5035325;28;20447;-53
2022/01/23 13:04:04;;;;;;;4.82;2.40;;;;;;;;;;5012996;28;20510;-52
2022/01/23 13:06:35;;;;;;;4.10;2.38;;;;;;;;;;5020368;28;20092;-53
2022/01/23 13:09:22;;;;;;;3.58;2.50;;;;;;;;;;5022240;28;20010;-54
2022/01/23 13:11:55;;;;;;;3.47;2.30;;;;;;;;;;5019671;28;20033;-51
2022/01/23 13:14:27;;;;;;;3.10;2.20;;;;;;;;;;5011214;28;20513;-53
2022/01/23 13:17:33;;;;;;;3.83;2.15;;;;;;;;;;5008085;28;20053;-52
2022/01/23 13:26:22;;;;;;;3.05;2.00;;;;;;;;;;5014238;28;20046;-51
2022/01/23 13:30:32;;;;;;;4.07;2.65;;;;;;;;;;5017628;28;20029;-53
2022/01/23 13:33:09;;;;;;;3.17;1.95;;;;;;;;;;5003595;28;20044;-56
2022/01/23 13:35:39;;;;;;;3.55;1.88;;;;;;;;;;5012421;28;20027;-54
2022/01/23 13:38:09;;;;;;;8.02;2.70;;;;;;;;;;5001251;28;20026;-53
2022/01/23 13:40:39;;;;;;;7.03;2.55;;;;;;;;;;5010233;28;20034;-53
2022/01/23 13:54:19;;;;;;;6.35;2.30;;;;;;;;;;5008868;28;20025;-55
2022/01/23 14:02:13;;;;;;;4.85;2.17;;;;;;;;;;5038483;28;20057;-55
2022/01/23 14:04:39;;;;;;;3.58;2.20;;;;;;;;;;5017943;28;20057;-53
2022/01/23 14:07:04;;;;;;;3.80;2.03;;;;;;;;;;5021972;28;20028;-53
2022/01/23 14:09:31;;;;;;;5.38;1.95;;;;;;;;;;5022063;28;20498;-54
2022/01/23 14:11:56;;;;;;;4.07;2.17;;;;;;;;;;5004331;28;20033;-54
2022/01/23 14:14:22;;;;;;;4.13;2.20;;;;;;;;;;4977295;28;20116;-55
2022/01/23 14:16:48;;;;;;;3.92;2.10;;;;;;;;;;4986010;28;20316;-54
2022/01/23 14:19:14;;;;;;;4.18;2.00;;;;;;;;;;5001848;28;20034;-54
2022/01/23 14:21:39;;;;;;;5.10;2.40;;;;;;;;;;5002171;28;20117;-55
2022/01/23 14:24:05;;;;;;;3.67;1.90;;;;;;;;;;5002397;28;20106;-56
2022/01/23 14:26:30;;;;;;;3.20;1.90;;;;;;;;;;5005192;28;20561;-55
2022/01/23 14:28:55;;;;;;;2.90;2.10;;;;;;;;;;4985134;28;20197;-54
2022/01/23 14:31:22;;;;;;;4.17;2.00;;;;;;;;;;4993488;28;20017;-55
2022/01/23 14:33:50;;;;;;;5.10;2.15;;;;;;;;;;4988291;28;20269;-56
2022/01/23 14:36:19;;;;;;;4.63;2.38;;;;;;;;;;5005861;28;20084;-53
2022/01/23 14:38:54;;;;;;;4.03;1.80;;;;;;;;;;4989100;28;20068;-53
2022/01/23 14:41:19;;;;;;;3.35;2.20;;;;;;;;;;5005711;28;20034;-53
2022/01/23 14:43:44;;;;;;;4.17;2.00;;;;;;;;;;5006450;28;20028;-54
2022/01/23 14:46:10;;;;;;;4.13;2.40;;;;;;;;;;5005603;28;20315;-53
2022/01/23 14:48:47;;;;;;;4.60;2.08;;;;;;;;;;5001946;28;20368;-54
2022/01/23 14:51:16;;;;;;;3.65;2.05;;;;;;;;;;4986067;28;20021;-53
2022/01/23 14:53:41;;;;;;;5.40;2.08;;;;;;;;;;5004646;28;20045;-55
2022/01/23 14:56:07;;;;;;;7.60;2.10;;;;;;;;;;5004678;28;20049;-55
2022/01/23 14:58:33;;;;;;;3.83;1.95;;;;;;;;;;4996082;28;20101;-55
2022/01/23 15:00:58;;;;;;;4.93;2.03;;;;;;;;;;5002554;28;20037;-55
2022/01/23 15:03:24;;;;;;;2.97;1.95;;;;;;;;;;4991647;28;20052;-55
2022/01/23 15:05:50;;;;;;;3.97;2.10;;;;;;;;;;4988368;28;20484;-54
2022/01/23 15:08:15;;;;;;;2.90;1.90;;;;;;;;;;5025965;28;20523;-54
2022/01/23 15:10:41;;;;;;;2.83;1.98;;;;;;;;;;5032533;28;20541;-56
2022/01/23 15:13:07;;;;;;;3.58;1.95;;;;;;;;;;5023588;28;20092;-54
2022/01/23 15:15:32;;;;;;;3.63;1.85;;;;;;;;;;5025756;28;20117;-55
2022/01/23 15:17:57;;;;;;;3.13;2.05;;;;;;;;;;5023931;28;20025;-51
2022/01/23 15:20:23;;;;;;;3.20;1.98;;;;;;;;;;5033063;28;20116;-55
2022/01/23 15:22:48;;;;;;;3.10;1.73;;;;;;;;;;5037446;28;20529;-53
2022/01/23 15:25:13;;;;;;;3.20;1.83;;;;;;;;;;5031845;28;20306;-55
2022/01/23 15:27:39;;;;;;;3.30;1.80;;;;;;;;;;5038832;28;20267;-54
2022/01/23 15:30:05;;;;;;;3.85;2.35;;;;;;;;;;5032172;28;20479;-52
2022/01/23 15:32:30;;;;;;;3.75;2.22;;;;;;;;;;5033127;28;20035;-52
2022/01/23 15:34:55;;;;;;;3.10;1.90;;;;;;;;;;5026308;28;20052;-54
2022/01/23 15:37:21;;;;;;;3.60;1.80;;;;;;;;;;5008563;28;20287;-53
2022/01/23 15:39:46;;;;;;;3.17;1.80;;;;;;;;;;5024786;28;20056;-53
2022/01/23 15:42:11;;;;;;;3.15;2.13;;;;;;;;;;5027858;28;20702;-54
2022/01/23 15:44:37;;;;;;;3.37;2.07;;;;;;;;;;5024845;28;20082;-53
2022/01/23 15:47:02;;;;;;;2.95;2.13;;;;;;;;;;5027669;28;20465;-54
2022/01/23 15:49:28;;;;;;;3.17;1.85;;;;;;;;;;5024778;28;20026;-53
2022/01/23 15:51:53;;;;;;;2.83;1.85;;;;;;;;;;5024647;28;20158;-54
2022/01/23 15:54:18;;;;;;;2.53;1.63;;;;;;;;;;5021748;28;20025;-55
2022/01/23 15:56:47;;;;;;;3.28;1.92;;;;;;;;;;5026265;28;20846;-54
2022/01/23 15:59:12;;;;;;;2.92;2.00;;;;;;;;;;5026698;28;20458;-55
2022/01/23 16:01:38;;;;;;;2.30;1.73;;;;;;;;;;5027098;28;20029;-52
2022/01/23 16:04:03;;;;;;;3.35;2.30;;;;;;;;;;5004533;28;20805;-55
2022/01/23 16:06:28;;;;;;;3.03;1.83;;;;;;;;;;5022594;28;20026;-55
2022/01/23 16:08:53;;;;;;;3.37;2.07;;;;;;;;;;5023494;28;20064;-54
2022/01/23 16:11:19;;;;;;;3.30;2.10;;;;;;;;;;5025932;28;20032;-53
2022/01/23 16:13:44;;;;;;;2.77;2.03;;;;;;;;;;5021547;28;20256;-53
2022/01/23 16:16:09;;;;;;;2.75;1.70;;;;;;;;;;5024699;28;20268;-55
2022/01/23 16:18:34;;;;;;;2.80;1.87;;;;;;;;;;5022810;28;20526;-55
2022/01/23 16:21:00;;;;;;;3.90;2.00;;;;;;;;;;5026801;28;20021;-56
2022/01/23 16:23:25;;;;;;;3.55;2.15;;;;;;;;;;5029183;28;20359;-54
2022/01/23 16:25:52;;;;;;;3.00;1.90;;;;;;;;;;5043155;28;20510;-55
2022/01/23 16:28:17;;;;;;;3.10;2.13;;;;;;;;;;5042975;28;20672;-54
2022/01/23 16:30:47;;;;;;;3.17;1.75;;;;;;;;;;5042782;28;20124;-54
2022/01/23 16:33:12;;;;;;;3.75;1.80;;;;;;;;;;5042753;28;20025;-53
2022/01/23 16:35:37;;;;;;;3.43;2.10;;;;;;;;;;5043003;28;20090;-57
2022/01/23 16:38:03;;;;;;;3.47;2.37;;;;;;;;;;5031809;28;20273;-56
2022/01/23 16:40:28;;;;;;;3.00;2.03;;;;;;;;;;5037531;28;20295;-54
2022/01/23 16:42:53;;;;;;;3.40;1.83;;;;;;;;;;5037583;28;20017;-56
2022/01/23 16:45:19;;;;;;;2.97;1.80;;;;;;;;;;5042529;28;20290;-55
2022/01/23 16:47:46;;;;;;;4.13;1.93;;;;;;;;;;5031065;28;20036;-55
2022/01/23 16:50:12;;;;;;;3.35;2.10;;;;;;;;;;5035160;28;20271;-54
2022/01/23 16:52:37;;;;;;;2.93;1.90;;;;;;;;;;5025827;28;20152;-54
2022/01/23 16:55:02;;;;;;;3.00;1.85;;;;;;;;;;5041327;28;20275;-53
2022/01/23 16:57:27;;;;;;;3.42;2.30;;;;;;;;;;5032844;28;20021;-54
2022/01/23 16:59:53;;;;;;;3.90;2.70;;;;;;;;;;5032372;28;20037;-54
2022/01/23 17:02:18;;;;;;;4.27;2.53;;;;;;;;;;5042153;28;20295;-55
2022/01/23 17:04:43;;;;;;;3.23;2.13;;;;;;;;;;5042075;28;20291;-53
2022/01/23 17:07:08;;;;;;;3.77;2.40;;;;;;;;;;5027328;28;20025;-53
2022/01/23 17:09:34;;;;;;;3.40;2.33;;;;;;;;;;5023360;28;20268;-54
2022/01/23 17:11:59;;;;;;;4.60;2.90;;;;;;;;;;5032429;28;20075;-54
2022/01/23 17:14:25;;;;;;;3.00;2.35;;;;;;;;;;5042102;28;20193;-55
2022/01/23 17:16:50;;;;;;;3.88;2.40;;;;;;;;;;5041111;28;20021;-53
2022/01/23 17:19:15;;;;;;;3.63;2.60;;;;;;;;;;5026044;28;20029;-55
2022/01/23 17:21:41;;;;;;;5.13;2.70;;;;;;;;;;5042246;28;20036;-54
2022/01/23 17:24:06;;;;;;;3.92;2.40;;;;;;;;;;5024116;28;20471;-52
2022/01/23 17:26:33;;;;;;;4.87;2.80;;;;;;;;;;5031994;28;20022;-54
2022/01/23 17:28:58;;;;;;;4.78;2.90;;;;;;;;;;5007698;28;20405;-54
2022/01/23 17:31:23;;;;;;;5.03;2.57;;;;;;;;;;5042321;28;20119;-54
2022/01/23 17:33:49;;;;;;;4.10;2.20;;;;;;;;;;5042105;28;20278;-54
2022/01/23 17:36:14;;;;;;;4.03;2.63;;;;;;;;;;5041851;28;20029;-54
2022/01/23 17:38:40;;;;;;;3.60;2.50;;;;;;;;;;5027146;28;20264;-54
2022/01/23 17:41:05;;;;;;;3.70;2.45;;;;;;;;;;5038856;28;20860;-54
2022/01/23 17:43:30;;;;;;;3.95;2.45;;;;;;;;;;5041910;28;20021;-54
2022/01/23 17:45:56;;;;;;;5.37;2.53;;;;;;;;;;5041984;28;20102;-54
2022/01/23 17:50:47;;;;;;;3.38;2.20;;;;;;;;;;5041818;28;20033;-54
2022/01/23 17:53:13;;;;;;;4.15;2.40;;;;;;;;;;5040933;28;20658;-53
2022/01/23 17:55:38;;;;;;;4.70;2.58;;;;;;;;;;5023271;28;20013;-53
2022/01/23 17:58:03;;;;;;;3.72;2.20;;;;;;;;;;5020689;28;20025;-53
2022/01/23 18:00:28;;;;;;;3.80;2.40;;;;;;;;;;5035371;28;20528;-54
2022/01/23 18:02:54;;;;;;;3.03;2.15;;;;;;;;;;5045567;28;20943;-54
2022/01/23 18:05:19;;;;;;;4.82;2.42;;;;;;;;;;5045265;28;20045;-54
2022/01/23 18:07:44;;;;;;;3.10;2.33;;;;;;;;;;5045569;28;20044;-53
2022/01/23 18:10:10;;;;;;;4.07;2.43;;;;;;;;;;5026675;28;20056;-53
2022/01/23 18:12:35;;;;;;;3.17;2.30;;;;;;;;;;5045778;28;20051;-53